sensor_id;sensor_type;location;lat;lon;timestamp;P1;durP1;ratioP1;P2;durP2;ratioP2
26574;SDS011;67165;50.256;10.978;2023-07-29T00:01:54;3.28;;;2.47;;
26574;SDS011;67165;50.256;10.978;2023-07-29T00:04:20;5.60;;;2.30;;
26574;SDS011;67165;50.256;10.978;2023-07-29T00:06:46;3.05;;;2.65;;
26574;SDS011;67165;50.256;10.978;2023-07-29T00:09:11;2.67;;;2.47;;
26574;SDS011;67165;50.256;10.978;2023-07-29T00:11:37;4.80;;;2.40;;
26574;SDS011;67165;50.256;10.978;2023-07-29T00:14:03;3.17;;;2.65;;
26574;SDS011;67165;50.256;10.978;2023-07-29T00:16:29;2.90;;;2.70;;
26574;SDS011;67165;50.256;10.978;2023-07-29T00:18:54;3.78;;;2.45;;
26574;SDS011;67165;50.256;10.978;2023-07-29T00:21:20;6.55;;;2.85;;
26574;SDS011;67165;50.256;10.978;2023-07-29T00:23:46;4.90;;;2.70;;
26574;SDS011;67165;50.256;10.978;2023-07-29T00:26:11;3.25;;;2.80;;
26574;SDS011;67165;50.256;10.978;2023-07-29T00:28:37;3.67;;;2.90;;
26574;SDS011;67165;50.256;10.978;2023-07-29T00:31:02;4.28;;;2.90;;
26574;SDS011;67165;50.256;10.978;2023-07-29T00:33:28;4.28;;;3.00;;
26574;SDS011;67165;50.256;10.978;2023-07-29T00:35:54;3.78;;;3.03;;
26574;SDS011;67165;50.256;10.978;2023-07-29T00:38:19;3.47;;;2.75;;
26574;SDS011;67165;50.256;10.978;2023-07-29T00:40:45;3.40;;;3.10;;
26574;SDS011;67165;50.256;10.978;2023-07-29T00:43:11;3.75;;;3.20;;
26574;SDS011;67165;50.256;10.978;2023-07-29T00:45:36;3.28;;;2.97;;
26574;SDS011;67165;50.256;10.978;2023-07-29T00:48:03;5.80;;;3.45;;
26574;SDS011;67165;50.256;10.978;2023-07-29T00:50:30;4.13;;;2.90;;
26574;SDS011;67165;50.256;10.978;2023-07-29T00:52:57;3.25;;;2.95;;
26574;SDS011;67165;50.256;10.978;2023-07-29T00:55:23;3.03;;;2.80;;
26574;SDS011;67165;50.256;10.978;2023-07-29T00:57:50;3.83;;;3.20;;
26574;SDS011;67165;50.256;10.978;2023-07-29T01:00:18;3.40;;;3.10;;
26574;SDS011;67165;50.256;10.978;2023-07-29T01:02:44;3.40;;;2.92;;
26574;SDS011;67165;50.256;10.978;2023-07-29T01:05:11;4.30;;;3.15;;
26574;SDS011;67165;50.256;10.978;2023-07-29T01:07:39;5.00;;;3.30;;
26574;SDS011;67165;50.256;10.978;2023-07-29T01:10:22;3.28;;;2.97;;
26574;SDS011;67165;50.256;10.978;2023-07-29T01:15:40;3.35;;;3.03;;
26574;SDS011;67165;50.256;10.978;2023-07-29T01:18:32;4.50;;;3.10;;
26574;SDS011;67165;50.256;10.978;2023-07-29T01:21:04;4.45;;;3.00;;
26574;SDS011;67165;50.256;10.978;2023-07-29T01:23:33;3.50;;;2.78;;
26574;SDS011;67165;50.256;10.978;2023-07-29T01:26:00;6.20;;;3.20;;
26574;SDS011;67165;50.256;10.978;2023-07-29T01:28:27;3.75;;;3.20;;
26574;SDS011;67165;50.256;10.978;2023-07-29T01:31:03;4.55;;;3.30;;
26574;SDS011;67165;50.256;10.978;2023-07-29T01:36:40;5.13;;;3.20;;
26574;SDS011;67165;50.256;10.978;2023-07-29T01:39:08;4.68;;;3.28;;
26574;SDS011;67165;50.256;10.978;2023-07-29T01:41:36;4.10;;;2.97;;
26574;SDS011;67165;50.256;10.978;2023-07-29T01:44:02;5.03;;;3.00;;
26574;SDS011;67165;50.256;10.978;2023-07-29T01:46:28;3.83;;;3.00;;
26574;SDS011;67165;50.256;10.978;2023-07-29T01:48:54;3.60;;;3.17;;
26574;SDS011;67165;50.256;10.978;2023-07-29T01:51:19;3.55;;;2.97;;
26574;SDS011;67165;50.256;10.978;2023-07-29T01:53:46;3.30;;;3.00;;
26574;SDS011;67165;50.256;10.978;2023-07-29T01:56:12;6.88;;;3.10;;
26574;SDS011;67165;50.256;10.978;2023-07-29T01:58:37;6.50;;;3.10;;
26574;SDS011;67165;50.256;10.978;2023-07-29T02:01:03;3.53;;;3.03;;
26574;SDS011;67165;50.256;10.978;2023-07-29T02:03:29;4.35;;;3.20;;
26574;SDS011;67165;50.256;10.978;2023-07-29T02:05:54;3.85;;;3.45;;
26574;SDS011;67165;50.256;10.978;2023-07-29T02:08:20;3.28;;;2.90;;
26574;SDS011;67165;50.256;10.978;2023-07-29T02:10:45;3.75;;;2.88;;
26574;SDS011;67165;50.256;10.978;2023-07-29T02:13:11;4.78;;;2.72;;
26574;SDS011;67165;50.256;10.978;2023-07-29T02:15:37;5.32;;;2.88;;
26574;SDS011;67165;50.256;10.978;2023-07-29T02:18:03;4.88;;;3.05;;
26574;SDS011;67165;50.256;10.978;2023-07-29T02:20:29;3.45;;;2.95;;
26574;SDS011;67165;50.256;10.978;2023-07-29T02:22:54;3.08;;;2.58;;
26574;SDS011;67165;50.256;10.978;2023-07-29T02:25:20;3.88;;;2.85;;
26574;SDS011;67165;50.256;10.978;2023-07-29T02:27:45;2.95;;;2.65;;
26574;SDS011;67165;50.256;10.978;2023-07-29T02:30:11;3.10;;;2.72;;
26574;SDS011;67165;50.256;10.978;2023-07-29T02:32:37;6.40;;;3.25;;
26574;SDS011;67165;50.256;10.978;2023-07-29T02:35:03;5.18;;;3.00;;
26574;SDS011;67165;50.256;10.978;2023-07-29T02:37:29;3.10;;;2.90;;
26574;SDS011;67165;50.256;10.978;2023-07-29T02:39:55;3.25;;;3.03;;
26574;SDS011;67165;50.256;10.978;2023-07-29T02:42:21;3.40;;;3.10;;
26574;SDS011;67165;50.256;10.978;2023-07-29T02:44:46;5.70;;;3.22;;
26574;SDS011;67165;50.256;10.978;2023-07-29T02:47:12;3.28;;;2.97;;
26574;SDS011;67165;50.256;10.978;2023-07-29T02:49:38;4.78;;;3.15;;
26574;SDS011;67165;50.256;10.978;2023-07-29T02:52:03;4.00;;;3.40;;
26574;SDS011;67165;50.256;10.978;2023-07-29T02:54:30;4.38;;;3.33;;
26574;SDS011;67165;50.256;10.978;2023-07-29T02:56:55;5.47;;;3.00;;
26574;SDS011;67165;50.256;10.978;2023-07-29T02:59:21;6.97;;;3.55;;
26574;SDS011;67165;50.256;10.978;2023-07-29T03:01:46;3.90;;;3.08;;
26574;SDS011;67165;50.256;10.978;2023-07-29T03:04:12;3.55;;;3.00;;
26574;SDS011;67165;50.256;10.978;2023-07-29T03:06:38;4.70;;;3.28;;
26574;SDS011;67165;50.256;10.978;2023-07-29T03:09:04;3.10;;;2.80;;
26574;SDS011;67165;50.256;10.978;2023-07-29T03:11:30;2.90;;;2.70;;
26574;SDS011;67165;50.256;10.978;2023-07-29T03:13:56;5.05;;;3.47;;
26574;SDS011;67165;50.256;10.978;2023-07-29T03:16:22;3.95;;;3.30;;
26574;SDS011;67165;50.256;10.978;2023-07-29T03:18:48;7.75;;;3.63;;
26574;SDS011;67165;50.256;10.978;2023-07-29T03:21:14;6.13;;;4.47;;
26574;SDS011;67165;50.256;10.978;2023-07-29T03:23:40;4.45;;;4.03;;
26574;SDS011;67165;50.256;10.978;2023-07-29T03:26:06;4.40;;;4.00;;
26574;SDS011;67165;50.256;10.978;2023-07-29T03:28:41;4.80;;;4.40;;
26574;SDS011;67165;50.256;10.978;2023-07-29T03:31:08;4.88;;;4.38;;
26574;SDS011;67165;50.256;10.978;2023-07-29T03:33:34;6.32;;;4.78;;
26574;SDS011;67165;50.256;10.978;2023-07-29T03:36:00;6.60;;;4.38;;
26574;SDS011;67165;50.256;10.978;2023-07-29T03:38:25;5.50;;;4.88;;
26574;SDS011;67165;50.256;10.978;2023-07-29T03:40:52;10.00;;;5.38;;
26574;SDS011;67165;50.256;10.978;2023-07-29T03:43:18;8.90;;;5.40;;
26574;SDS011;67165;50.256;10.978;2023-07-29T03:45:44;6.65;;;5.07;;
26574;SDS011;67165;50.256;10.978;2023-07-29T03:48:10;8.50;;;6.40;;
26574;SDS011;67165;50.256;10.978;2023-07-29T03:50:36;7.28;;;5.75;;
26574;SDS011;67165;50.256;10.978;2023-07-29T03:53:04;6.97;;;6.35;;
26574;SDS011;67165;50.256;10.978;2023-07-29T03:55:30;7.18;;;6.47;;
26574;SDS011;67165;50.256;10.978;2023-07-29T03:57:57;12.05;;;7.35;;
26574;SDS011;67165;50.256;10.978;2023-07-29T04:00:23;9.82;;;6.70;;
26574;SDS011;67165;50.256;10.978;2023-07-29T04:02:49;8.57;;;7.15;;
26574;SDS011;67165;50.256;10.978;2023-07-29T04:05:14;11.45;;;7.40;;
26574;SDS011;67165;50.256;10.978;2023-07-29T04:07:40;9.25;;;7.22;;
26574;SDS011;67165;50.256;10.978;2023-07-29T04:10:06;7.93;;;6.78;;
26574;SDS011;67165;50.256;10.978;2023-07-29T04:12:32;7.80;;;6.82;;
26574;SDS011;67165;50.256;10.978;2023-07-29T04:14:58;9.20;;;7.15;;
26574;SDS011;67165;50.256;10.978;2023-07-29T04:17:24;7.57;;;6.88;;
26574;SDS011;67165;50.256;10.978;2023-07-29T04:19:49;9.25;;;8.07;;
26574;SDS011;67165;50.256;10.978;2023-07-29T04:22:15;9.43;;;7.20;;
26574;SDS011;67165;50.256;10.978;2023-07-29T04:24:41;7.72;;;7.00;;
26574;SDS011;67165;50.256;10.978;2023-07-29T04:27:07;11.82;;;7.88;;
26574;SDS011;67165;50.256;10.978;2023-07-29T04:29:33;11.55;;;9.57;;
26574;SDS011;67165;50.256;10.978;2023-07-29T04:32:00;9.35;;;8.07;;
26574;SDS011;67165;50.256;10.978;2023-07-29T04:34:27;9.30;;;8.13;;
26574;SDS011;67165;50.256;10.978;2023-07-29T04:36:52;9.27;;;7.50;;
26574;SDS011;67165;50.256;10.978;2023-07-29T04:39:18;8.32;;;7.50;;
26574;SDS011;67165;50.256;10.978;2023-07-29T04:41:43;11.30;;;6.43;;
26574;SDS011;67165;50.256;10.978;2023-07-29T04:44:09;7.10;;;6.40;;
26574;SDS011;67165;50.256;10.978;2023-07-29T04:46:35;9.52;;;6.88;;
26574;SDS011;67165;50.256;10.978;2023-07-29T04:49:01;9.40;;;7.07;;
26574;SDS011;67165;50.256;10.978;2023-07-29T04:51:27;8.40;;;6.70;;
26574;SDS011;67165;50.256;10.978;2023-07-29T04:53:53;8.13;;;6.65;;
26574;SDS011;67165;50.256;10.978;2023-07-29T04:56:19;8.10;;;5.55;;
26574;SDS011;67165;50.256;10.978;2023-07-29T04:58:44;7.00;;;6.00;;
26574;SDS011;67165;50.256;10.978;2023-07-29T05:01:10;7.22;;;5.80;;
26574;SDS011;67165;50.256;10.978;2023-07-29T05:03:36;5.85;;;5.15;;
26574;SDS011;67165;50.256;10.978;2023-07-29T05:06:03;7.63;;;6.07;;
26574;SDS011;67165;50.256;10.978;2023-07-29T05:08:28;11.70;;;6.20;;
26574;SDS011;67165;50.256;10.978;2023-07-29T05:10:54;10.93;;;6.65;;
26574;SDS011;67165;50.256;10.978;2023-07-29T05:13:21;8.20;;;6.70;;
26574;SDS011;67165;50.256;10.978;2023-07-29T05:15:47;8.73;;;6.57;;
26574;SDS011;67165;50.256;10.978;2023-07-29T05:18:14;7.72;;;6.32;;
26574;SDS011;67165;50.256;10.978;2023-07-29T05:20:40;7.32;;;6.43;;
26574;SDS011;67165;50.256;10.978;2023-07-29T05:23:06;12.32;;;6.82;;
26574;SDS011;67165;50.256;10.978;2023-07-29T05:25:31;7.55;;;6.15;;
26574;SDS011;67165;50.256;10.978;2023-07-29T05:27:59;6.68;;;5.97;;
26574;SDS011;67165;50.256;10.978;2023-07-29T05:30:25;9.00;;;6.55;;
26574;SDS011;67165;50.256;10.978;2023-07-29T05:32:52;15.00;;;6.63;;
26574;SDS011;67165;50.256;10.978;2023-07-29T05:35:17;7.60;;;6.13;;
26574;SDS011;67165;50.256;10.978;2023-07-29T05:37:43;7.35;;;6.30;;
26574;SDS011;67165;50.256;10.978;2023-07-29T05:40:09;8.98;;;5.93;;
26574;SDS011;67165;50.256;10.978;2023-07-29T05:42:34;8.60;;;6.20;;
26574;SDS011;67165;50.256;10.978;2023-07-29T05:45:00;6.22;;;5.63;;
26574;SDS011;67165;50.256;10.978;2023-07-29T05:47:26;7.32;;;5.30;;
26574;SDS011;67165;50.256;10.978;2023-07-29T05:49:52;6.32;;;5.18;;
26574;SDS011;67165;50.256;10.978;2023-07-29T05:52:18;5.47;;;4.47;;
26574;SDS011;67165;50.256;10.978;2023-07-29T05:54:44;5.82;;;4.63;;
26574;SDS011;67165;50.256;10.978;2023-07-29T05:57:10;5.18;;;4.40;;
26574;SDS011;67165;50.256;10.978;2023-07-29T05:59:36;4.97;;;4.32;;
26574;SDS011;67165;50.256;10.978;2023-07-29T06:02:02;5.40;;;3.60;;
26574;SDS011;67165;50.256;10.978;2023-07-29T06:04:28;4.22;;;3.60;;
26574;SDS011;67165;50.256;10.978;2023-07-29T06:06:54;10.18;;;3.80;;
26574;SDS011;67165;50.256;10.978;2023-07-29T06:09:20;4.53;;;3.25;;
26574;SDS011;67165;50.256;10.978;2023-07-29T06:11:46;7.85;;;3.13;;
26574;SDS011;67165;50.256;10.978;2023-07-29T06:14:12;5.30;;;3.28;;
26574;SDS011;67165;50.256;10.978;2023-07-29T06:16:38;4.50;;;3.10;;
26574;SDS011;67165;50.256;10.978;2023-07-29T06:19:04;3.95;;;3.00;;
26574;SDS011;67165;50.256;10.978;2023-07-29T06:21:30;4.22;;;3.30;;
26574;SDS011;67165;50.256;10.978;2023-07-29T06:23:56;6.07;;;3.45;;
26574;SDS011;67165;50.256;10.978;2023-07-29T06:26:21;3.75;;;3.17;;
26574;SDS011;67165;50.256;10.978;2023-07-29T06:28:47;4.95;;;3.15;;
26574;SDS011;67165;50.256;10.978;2023-07-29T06:31:13;6.45;;;3.65;;
26574;SDS011;67165;50.256;10.978;2023-07-29T06:33:39;5.80;;;2.95;;
26574;SDS011;67165;50.256;10.978;2023-07-29T06:36:04;4.32;;;3.00;;
26574;SDS011;67165;50.256;10.978;2023-07-29T06:38:30;3.97;;;2.90;;
26574;SDS011;67165;50.256;10.978;2023-07-29T06:40:56;4.03;;;2.72;;
26574;SDS011;67165;50.256;10.978;2023-07-29T06:43:22;3.00;;;2.63;;
26574;SDS011;67165;50.256;10.978;2023-07-29T06:45:47;3.42;;;3.03;;
26574;SDS011;67165;50.256;10.978;2023-07-29T06:48:13;3.42;;;3.00;;
26574;SDS011;67165;50.256;10.978;2023-07-29T06:50:39;3.47;;;3.10;;
26574;SDS011;67165;50.256;10.978;2023-07-29T06:53:05;3.60;;;2.97;;
26574;SDS011;67165;50.256;10.978;2023-07-29T06:55:31;6.20;;;3.45;;
26574;SDS011;67165;50.256;10.978;2023-07-29T06:57:56;6.47;;;3.65;;
26574;SDS011;67165;50.256;10.978;2023-07-29T07:00:22;3.88;;;3.55;;
26574;SDS011;67165;50.256;10.978;2023-07-29T07:02:48;5.38;;;4.45;;
26574;SDS011;67165;50.256;10.978;2023-07-29T07:05:14;5.35;;;4.50;;
26574;SDS011;67165;50.256;10.978;2023-07-29T07:07:40;5.28;;;4.70;;
26574;SDS011;67165;50.256;10.978;2023-07-29T07:10:05;4.80;;;4.30;;
26574;SDS011;67165;50.256;10.978;2023-07-29T07:12:31;5.78;;;4.72;;
26574;SDS011;67165;50.256;10.978;2023-07-29T07:14:57;7.18;;;4.13;;
26574;SDS011;67165;50.256;10.978;2023-07-29T07:17:23;6.10;;;4.50;;
26574;SDS011;67165;50.256;10.978;2023-07-29T07:19:48;4.45;;;4.05;;
26574;SDS011;67165;50.256;10.978;2023-07-29T07:22:15;8.02;;;4.50;;
26574;SDS011;67165;50.256;10.978;2023-07-29T07:24:41;5.05;;;3.65;;
26574;SDS011;67165;50.256;10.978;2023-07-29T07:27:06;4.38;;;3.95;;
26574;SDS011;67165;50.256;10.978;2023-07-29T07:29:32;5.15;;;4.22;;
26574;SDS011;67165;50.256;10.978;2023-07-29T07:31:58;4.43;;;4.03;;
26574;SDS011;67165;50.256;10.978;2023-07-29T07:34:24;5.53;;;4.13;;
26574;SDS011;67165;50.256;10.978;2023-07-29T07:36:49;4.43;;;4.03;;
26574;SDS011;67165;50.256;10.978;2023-07-29T07:39:16;4.45;;;3.90;;
26574;SDS011;67165;50.256;10.978;2023-07-29T07:41:42;4.82;;;4.13;;
26574;SDS011;67165;50.256;10.978;2023-07-29T07:44:08;6.40;;;4.57;;
26574;SDS011;67165;50.256;10.978;2023-07-29T07:46:34;6.07;;;4.70;;
26574;SDS011;67165;50.256;10.978;2023-07-29T07:48:59;5.00;;;4.50;;
26574;SDS011;67165;50.256;10.978;2023-07-29T07:51:25;5.40;;;4.85;;
26574;SDS011;67165;50.256;10.978;2023-07-29T07:53:51;6.85;;;4.78;;
26574;SDS011;67165;50.256;10.978;2023-07-29T07:56:16;5.57;;;4.90;;
26574;SDS011;67165;50.256;10.978;2023-07-29T07:58:42;5.85;;;5.03;;
26574;SDS011;67165;50.256;10.978;2023-07-29T08:01:08;4.75;;;4.22;;
26574;SDS011;67165;50.256;10.978;2023-07-29T08:03:34;5.38;;;4.88;;
26574;SDS011;67165;50.256;10.978;2023-07-29T08:06:00;5.90;;;4.97;;
26574;SDS011;67165;50.256;10.978;2023-07-29T08:08:26;5.40;;;4.63;;
26574;SDS011;67165;50.256;10.978;2023-07-29T08:10:53;5.53;;;4.60;;
26574;SDS011;67165;50.256;10.978;2023-07-29T08:13:19;5.15;;;4.47;;
26574;SDS011;67165;50.256;10.978;2023-07-29T08:15:48;5.38;;;4.88;;
26574;SDS011;67165;50.256;10.978;2023-07-29T08:18:15;5.82;;;4.63;;
26574;SDS011;67165;50.256;10.978;2023-07-29T08:20:42;4.95;;;4.13;;
26574;SDS011;67165;50.256;10.978;2023-07-29T08:23:17;6.07;;;4.10;;
26574;SDS011;67165;50.256;10.978;2023-07-29T08:25:43;4.57;;;4.00;;
26574;SDS011;67165;50.256;10.978;2023-07-29T08:28:09;5.53;;;4.50;;
26574;SDS011;67165;50.256;10.978;2023-07-29T08:30:36;5.50;;;3.92;;
26574;SDS011;67165;50.256;10.978;2023-07-29T08:33:01;3.95;;;3.42;;
26574;SDS011;67165;50.256;10.978;2023-07-29T08:35:27;5.70;;;3.40;;
26574;SDS011;67165;50.256;10.978;2023-07-29T08:37:53;4.22;;;3.80;;
26574;SDS011;67165;50.256;10.978;2023-07-29T08:40:19;4.65;;;3.80;;
26574;SDS011;67165;50.256;10.978;2023-07-29T08:42:52;3.85;;;3.45;;
26574;SDS011;67165;50.256;10.978;2023-07-29T08:45:19;3.58;;;3.28;;
26574;SDS011;67165;50.256;10.978;2023-07-29T08:47:45;5.40;;;3.83;;
26574;SDS011;67165;50.256;10.978;2023-07-29T08:50:12;3.45;;;3.15;;
26574;SDS011;67165;50.256;10.978;2023-07-29T08:52:39;4.43;;;3.53;;
26574;SDS011;67165;50.256;10.978;2023-07-29T08:55:07;4.50;;;3.50;;
26574;SDS011;67165;50.256;10.978;2023-07-29T08:57:33;5.07;;;3.70;;
26574;SDS011;67165;50.256;10.978;2023-07-29T09:00:00;5.60;;;3.50;;
26574;SDS011;67165;50.256;10.978;2023-07-29T09:02:27;5.78;;;3.70;;
26574;SDS011;67165;50.256;10.978;2023-07-29T09:04:53;4.80;;;3.47;;
26574;SDS011;67165;50.256;10.978;2023-07-29T09:07:19;4.72;;;3.35;;
26574;SDS011;67165;50.256;10.978;2023-07-29T09:09:45;4.80;;;3.40;;
26574;SDS011;67165;50.256;10.978;2023-07-29T09:12:11;3.80;;;3.10;;
26574;SDS011;67165;50.256;10.978;2023-07-29T09:14:37;3.42;;;3.05;;
26574;SDS011;67165;50.256;10.978;2023-07-29T09:17:02;5.38;;;3.20;;
26574;SDS011;67165;50.256;10.978;2023-07-29T09:19:32;3.58;;;2.58;;
26574;SDS011;67165;50.256;10.978;2023-07-29T09:21:58;2.95;;;2.65;;
26574;SDS011;67165;50.256;10.978;2023-07-29T09:24:24;4.75;;;2.55;;
26574;SDS011;67165;50.256;10.978;2023-07-29T09:26:54;3.70;;;2.08;;
26574;SDS011;67165;50.256;10.978;2023-07-29T09:29:23;3.03;;;2.30;;
26574;SDS011;67165;50.256;10.978;2023-07-29T09:31:53;2.83;;;2.15;;
26574;SDS011;67165;50.256;10.978;2023-07-29T09:34:19;2.35;;;1.90;;
26574;SDS011;67165;50.256;10.978;2023-07-29T09:36:44;3.85;;;2.10;;
26574;SDS011;67165;50.256;10.978;2023-07-29T09:39:11;2.33;;;1.90;;
26574;SDS011;67165;50.256;10.978;2023-07-29T09:41:38;8.75;;;2.53;;
26574;SDS011;67165;50.256;10.978;2023-07-29T09:44:03;7.28;;;2.58;;
26574;SDS011;67165;50.256;10.978;2023-07-29T09:46:33;3.78;;;1.80;;
26574;SDS011;67165;50.256;10.978;2023-07-29T09:49:01;4.63;;;1.85;;
26574;SDS011;67165;50.256;10.978;2023-07-29T09:51:31;13.90;;;1.90;;
26574;SDS011;67165;50.256;10.978;2023-07-29T09:53:57;10.40;;;1.92;;
26574;SDS011;67165;50.256;10.978;2023-07-29T09:56:26;5.05;;;1.83;;
26574;SDS011;67165;50.256;10.978;2023-07-29T09:58:53;3.85;;;1.52;;
26574;SDS011;67165;50.256;10.978;2023-07-29T10:01:21;8.13;;;1.67;;
26574;SDS011;67165;50.256;10.978;2023-07-29T10:03:46;2.92;;;1.60;;
26574;SDS011;67165;50.256;10.978;2023-07-29T10:06:14;2.08;;;1.40;;
26574;SDS011;67165;50.256;10.978;2023-07-29T10:08:39;4.65;;;1.80;;
26574;SDS011;67165;50.256;10.978;2023-07-29T10:11:08;4.47;;;1.90;;
26574;SDS011;67165;50.256;10.978;2023-07-29T10:13:35;2.40;;;1.50;;
26574;SDS011;67165;50.256;10.978;2023-07-29T10:16:02;2.22;;;1.40;;
26574;SDS011;67165;50.256;10.978;2023-07-29T10:18:29;4.68;;;1.60;;
26574;SDS011;67165;50.256;10.978;2023-07-29T10:20:56;3.58;;;1.83;;
26574;SDS011;67165;50.256;10.978;2023-07-29T10:23:24;3.40;;;1.67;;
26574;SDS011;67165;50.256;10.978;2023-07-29T10:25:54;5.32;;;1.98;;
26574;SDS011;67165;50.256;10.978;2023-07-29T10:28:26;3.55;;;1.73;;
26574;SDS011;67165;50.256;10.978;2023-07-29T10:30:56;3.22;;;1.90;;
26574;SDS011;67165;50.256;10.978;2023-07-29T10:33:22;3.00;;;1.90;;
26574;SDS011;67165;50.256;10.978;2023-07-29T10:35:47;2.00;;;1.63;;
26574;SDS011;67165;50.256;10.978;2023-07-29T10:38:14;2.42;;;1.50;;
26574;SDS011;67165;50.256;10.978;2023-07-29T10:40:44;2.90;;;1.35;;
26574;SDS011;67165;50.256;10.978;2023-07-29T10:43:20;5.10;;;2.50;;
26574;SDS011;67165;50.256;10.978;2023-07-29T10:45:56;3.80;;;1.88;;
26574;SDS011;67165;50.256;10.978;2023-07-29T10:53:52;1.20;;;0.90;;
26574;SDS011;67165;50.256;10.978;2023-07-29T10:56:32;2.22;;;0.88;;
26574;SDS011;67165;50.256;10.978;2023-07-29T10:59:02;3.70;;;1.00;;
26574;SDS011;67165;50.256;10.978;2023-07-29T11:01:56;0.95;;;0.93;;
26574;SDS011;67165;50.256;10.978;2023-07-29T11:04:23;3.20;;;1.00;;
26574;SDS011;67165;50.256;10.978;2023-07-29T11:14:59;1.33;;;1.20;;
26574;SDS011;67165;50.256;10.978;2023-07-29T11:17:52;2.00;;;1.10;;
26574;SDS011;67165;50.256;10.978;2023-07-29T11:20:33;4.15;;;1.10;;
26574;SDS011;67165;50.256;10.978;2023-07-29T11:23:00;1.27;;;1.10;;
26574;SDS011;67165;50.256;10.978;2023-07-29T11:25:27;1.92;;;1.17;;
26574;SDS011;67165;50.256;10.978;2023-07-29T11:27:55;1.10;;;1.00;;
26574;SDS011;67165;50.256;10.978;2023-07-29T11:30:21;1.17;;;1.08;;
26574;SDS011;67165;50.256;10.978;2023-07-29T11:32:48;1.48;;;1.10;;
26574;SDS011;67165;50.256;10.978;2023-07-29T11:35:17;1.17;;;1.10;;
26574;SDS011;67165;50.256;10.978;2023-07-29T11:37:44;3.03;;;1.00;;
26574;SDS011;67165;50.256;10.978;2023-07-29T11:40:18;2.33;;;1.00;;
26574;SDS011;67165;50.256;10.978;2023-07-29T11:42:45;3.17;;;1.10;;
26574;SDS011;67165;50.256;10.978;2023-07-29T11:45:12;1.20;;;1.10;;
26574;SDS011;67165;50.256;10.978;2023-07-29T11:47:41;2.20;;;1.20;;
26574;SDS011;67165;50.256;10.978;2023-07-29T11:50:07;1.48;;;1.15;;
26574;SDS011;67165;50.256;10.978;2023-07-29T11:52:35;2.15;;;1.20;;
26574;SDS011;67165;50.256;10.978;2023-07-29T11:55:02;1.10;;;1.00;;
26574;SDS011;67165;50.256;10.978;2023-07-29T11:57:34;3.15;;;1.08;;
26574;SDS011;67165;50.256;10.978;2023-07-29T12:00:02;4.35;;;1.00;;
26574;SDS011;67165;50.256;10.978;2023-07-29T12:02:31;1.80;;;1.10;;
26574;SDS011;67165;50.256;10.978;2023-07-29T12:04:57;2.05;;;1.05;;
26574;SDS011;67165;50.256;10.978;2023-07-29T12:07:25;1.50;;;1.13;;
26574;SDS011;67165;50.256;10.978;2023-07-29T12:09:51;2.13;;;1.05;;
26574;SDS011;67165;50.256;10.978;2023-07-29T12:12:17;1.27;;;1.05;;
26574;SDS011;67165;50.256;10.978;2023-07-29T12:14:43;4.15;;;1.25;;
26574;SDS011;67165;50.256;10.978;2023-07-29T12:17:12;2.50;;;1.10;;
26574;SDS011;67165;50.256;10.978;2023-07-29T12:19:38;1.70;;;1.20;;
26574;SDS011;67165;50.256;10.978;2023-07-29T12:22:06;1.73;;;1.17;;
26574;SDS011;67165;50.256;10.978;2023-07-29T12:24:34;1.10;;;1.00;;
26574;SDS011;67165;50.256;10.978;2023-07-29T12:27:09;1.63;;;1.50;;
26574;SDS011;67165;50.256;10.978;2023-07-29T12:29:40;1.33;;;1.10;;
26574;SDS011;67165;50.256;10.978;2023-07-29T12:32:07;1.65;;;1.30;;
26574;SDS011;67165;50.256;10.978;2023-07-29T12:34:34;1.20;;;1.10;;
26574;SDS011;67165;50.256;10.978;2023-07-29T12:37:02;1.20;;;0.95;;
26574;SDS011;67165;50.256;10.978;2023-07-29T12:39:30;1.08;;;1.00;;
26574;SDS011;67165;50.256;10.978;2023-07-29T12:41:58;1.20;;;1.10;;
26574;SDS011;67165;50.256;10.978;2023-07-29T12:44:25;2.00;;;1.20;;
26574;SDS011;67165;50.256;10.978;2023-07-29T12:46:56;1.50;;;1.15;;
26574;SDS011;67165;50.256;10.978;2023-07-29T12:49:22;1.30;;;1.20;;
26574;SDS011;67165;50.256;10.978;2023-07-29T12:51:48;2.33;;;1.20;;
26574;SDS011;67165;50.256;10.978;2023-07-29T12:54:14;1.67;;;1.17;;
26574;SDS011;67165;50.256;10.978;2023-07-29T12:56:39;2.85;;;1.40;;
26574;SDS011;67165;50.256;10.978;2023-07-29T12:59:05;2.55;;;1.30;;
26574;SDS011;67165;50.256;10.978;2023-07-29T13:01:31;1.52;;;1.30;;
26574;SDS011;67165;50.256;10.978;2023-07-29T13:03:57;1.38;;;1.27;;
26574;SDS011;67165;50.256;10.978;2023-07-29T13:06:22;1.45;;;1.23;;
26574;SDS011;67165;50.256;10.978;2023-07-29T13:08:48;2.95;;;1.58;;
26574;SDS011;67165;50.256;10.978;2023-07-29T13:11:14;1.98;;;1.50;;
26574;SDS011;67165;50.256;10.978;2023-07-29T13:13:40;1.40;;;1.30;;
26574;SDS011;67165;50.256;10.978;2023-07-29T13:16:06;1.45;;;1.20;;
26574;SDS011;67165;50.256;10.978;2023-07-29T13:18:32;1.20;;;1.10;;
26574;SDS011;67165;50.256;10.978;2023-07-29T13:20:58;1.98;;;1.30;;
26574;SDS011;67165;50.256;10.978;2023-07-29T13:23:25;1.40;;;1.27;;
26574;SDS011;67165;50.256;10.978;2023-07-29T13:25:51;2.78;;;1.42;;
26574;SDS011;67165;50.256;10.978;2023-07-29T13:28:17;1.50;;;1.40;;
26574;SDS011;67165;50.256;10.978;2023-07-29T13:30:44;2.63;;;1.25;;
26574;SDS011;67165;50.256;10.978;2023-07-29T13:33:10;1.55;;;1.45;;
26574;SDS011;67165;50.256;10.978;2023-07-29T13:35:35;2.17;;;1.42;;
26574;SDS011;67165;50.256;10.978;2023-07-29T13:38:01;1.50;;;1.40;;
26574;SDS011;67165;50.256;10.978;2023-07-29T13:40:27;2.72;;;1.40;;
26574;SDS011;67165;50.256;10.978;2023-07-29T13:42:53;2.92;;;1.48;;
26574;SDS011;67165;50.256;10.978;2023-07-29T13:45:19;1.77;;;1.60;;
26574;SDS011;67165;50.256;10.978;2023-07-29T13:47:47;1.70;;;1.60;;
26574;SDS011;67165;50.256;10.978;2023-07-29T13:50:14;1.83;;;1.45;;
26574;SDS011;67165;50.256;10.978;2023-07-29T13:52:40;1.70;;;1.60;;
26574;SDS011;67165;50.256;10.978;2023-07-29T13:55:05;2.67;;;1.55;;
26574;SDS011;67165;50.256;10.978;2023-07-29T13:57:31;1.75;;;1.65;;
26574;SDS011;67165;50.256;10.978;2023-07-29T13:59:57;1.67;;;1.50;;
26574;SDS011;67165;50.256;10.978;2023-07-29T14:02:23;1.85;;;1.50;;
26574;SDS011;67165;50.256;10.978;2023-07-29T14:04:51;2.05;;;1.50;;
26574;SDS011;67165;50.256;10.978;2023-07-29T14:07:17;2.72;;;1.50;;
26574;SDS011;67165;50.256;10.978;2023-07-29T14:09:43;2.85;;;1.70;;
26574;SDS011;67165;50.256;10.978;2023-07-29T14:12:08;1.60;;;1.50;;
26574;SDS011;67165;50.256;10.978;2023-07-29T14:14:38;1.67;;;1.52;;
26574;SDS011;67165;50.256;10.978;2023-07-29T14:17:04;1.70;;;1.60;;
26574;SDS011;67165;50.256;10.978;2023-07-29T14:19:30;2.05;;;1.65;;
26574;SDS011;67165;50.256;10.978;2023-07-29T14:21:58;1.90;;;1.70;;
26574;SDS011;67165;50.256;10.978;2023-07-29T14:24:23;1.88;;;1.73;;
26574;SDS011;67165;50.256;10.978;2023-07-29T14:26:49;1.88;;;1.67;;
26574;SDS011;67165;50.256;10.978;2023-07-29T14:29:15;2.08;;;1.88;;
26574;SDS011;67165;50.256;10.978;2023-07-29T14:31:40;2.10;;;1.70;;
26574;SDS011;67165;50.256;10.978;2023-07-29T14:34:06;2.75;;;1.77;;
26574;SDS011;67165;50.256;10.978;2023-07-29T14:36:31;1.92;;;1.60;;
26574;SDS011;67165;50.256;10.978;2023-07-29T14:39:02;2.68;;;1.97;;
26574;SDS011;67165;50.256;10.978;2023-07-29T14:41:28;2.00;;;1.77;;
26574;SDS011;67165;50.256;10.978;2023-07-29T14:43:54;2.92;;;2.00;;
26574;SDS011;67165;50.256;10.978;2023-07-29T14:46:20;3.30;;;2.05;;
26574;SDS011;67165;50.256;10.978;2023-07-29T14:48:46;4.72;;;2.20;;
26574;SDS011;67165;50.256;10.978;2023-07-29T14:51:12;2.95;;;2.10;;